Time;durP1;ratioP1;P1;durP2;ratioP2;P2;SDS_P1;SDS_P2;PMS_P1;PMS_P2;Temp;Humidity;BMP_temperature;BMP_pressure;BME280_temperature;BME280_humidity;BME280_pressure;Samples;Min_cycle;Max_cycle;Signal;HPM_P1;HPM_P2
2023/09/23 00:01:36;;;;;;;1.60;0.60;;;11.50;99.90;;;10.88;100.00;97201.38;4983376;28;20241;-74
2023/09/23 00:04:04;;;;;;;5.28;0.57;;;11.60;99.90;;;10.75;100.00;97199.47;4970336;28;20498;-74
2023/09/23 00:06:31;;;;;;;2.22;1.40;;;11.60;99.90;;;10.90;100.00;97203.88;4981470;28;20058;-74
2023/09/23 00:09:01;;;;;;;1.77;0.60;;;11.60;99.90;;;10.76;100.00;97204.56;4984197;28;20075;-74
2023/09/23 00:11:28;;;;;;;1.45;0.50;;;11.50;99.90;;;10.76;100.00;97209.75;4981723;28;20047;-74
2023/09/23 00:13:55;;;;;;;1.98;0.60;;;11.50;99.90;;;10.77;100.00;97201.06;4986217;28;20434;-74
2023/09/23 00:16:22;;;;;;;3.75;1.00;;;11.60;99.90;;;10.72;100.00;97210.84;4983320;28;20403;-74
2023/09/23 00:18:51;;;;;;;1.20;0.60;;;11.50;99.90;;;10.65;100.00;97210.31;4982136;28;20078;-74
2023/09/23 00:21:18;;;;;;;1.33;0.57;;;11.50;99.90;;;10.75;100.00;97208.09;4998807;28;20462;-75
2023/09/23 00:23:46;;;;;;;2.05;0.75;;;11.40;99.90;;;10.72;100.00;97208.25;4984301;28;20519;-74
2023/09/23 00:26:17;;;;;;;2.72;0.70;;;11.40;99.90;;;10.65;100.00;97215.50;4980816;28;20093;-74
2023/09/23 00:28:46;;;;;;;2.13;0.60;;;11.40;99.90;;;10.72;100.00;97213.44;4996129;28;20533;-74
2023/09/23 00:31:14;;;;;;;2.55;0.88;;;11.40;99.90;;;10.64;100.00;97233.72;4983551;28;20054;-74
2023/09/23 00:33:42;;;;;;;1.63;0.75;;;11.40;99.90;;;10.68;100.00;97227.47;4985671;28;20050;-74
2023/09/23 00:36:10;;;;;;;6.63;0.82;;;11.40;99.90;;;10.62;100.00;97228.59;4966085;28;20729;-74
2023/09/23 00:38:38;;;;;;;1.40;0.70;;;11.50;99.90;;;10.58;100.00;97231.41;4986592;28;20496;-74
2023/09/23 00:41:06;;;;;;;1.52;0.80;;;11.40;99.90;;;10.70;100.00;97228.25;4985609;28;20047;-73
2023/09/23 00:43:34;;;;;;;3.58;0.85;;;11.30;99.90;;;10.73;100.00;97233.28;4997692;28;20165;-74
2023/09/23 00:46:06;;;;;;;3.17;0.77;;;11.30;99.90;;;10.65;100.00;97230.22;4983140;28;20141;-73
2023/09/23 00:48:43;;;;;;;2.27;0.73;;;11.40;99.90;;;10.54;100.00;97229.91;4987126;28;20046;-74
2023/09/23 00:51:12;;;;;;;2.75;0.80;;;11.40;99.90;;;10.65;100.00;97249.25;4977408;28;20475;-74
2023/09/23 00:53:40;;;;;;;3.70;1.08;;;11.50;99.90;;;10.64;100.00;97241.53;4980647;28;20050;-73
2023/09/23 00:56:12;;;;;;;2.88;0.85;;;11.40;99.90;;;10.52;100.00;97253.34;4984116;28;20054;-73
2023/09/23 00:58:42;;;;;;;2.30;0.70;;;11.30;99.90;;;10.62;100.00;97248.53;4983121;28;20046;-74
2023/09/23 01:01:10;;;;;;;1.63;0.80;;;11.30;99.90;;;10.51;100.00;97250.81;4981365;28;20046;-74
2023/09/23 01:03:38;;;;;;;3.03;0.93;;;11.30;99.90;;;10.55;100.00;97253.19;4986207;28;20046;-75
2023/09/23 01:06:16;;;;;;;2.72;0.73;;;11.20;99.90;;;10.72;100.00;97259.31;4983423;28;20069;-74
2023/09/23 01:08:45;;;;;;;3.03;0.90;;;11.10;99.90;;;10.44;100.00;97248.50;4981374;28;20114;-74
2023/09/23 01:11:16;;;;;;;3.42;0.70;;;11.10;99.90;;;10.46;100.00;97240.63;4982018;28;20058;-74
2023/09/23 01:13:45;;;;;;;4.55;0.75;;;11.10;99.90;;;10.43;100.00;97244.22;4983968;28;20550;-74
2023/09/23 01:16:13;;;;;;;3.20;1.10;;;11.20;99.90;;;10.45;100.00;97247.59;4984902;28;20561;-74
2023/09/23 01:18:45;;;;;;;1.65;0.90;;;11.20;99.90;;;10.38;100.00;97245.38;4977313;28;20053;-74
2023/09/23 01:21:13;;;;;;;1.50;0.70;;;11.20;99.90;;;10.38;100.00;97246.19;4995746;28;20427;-74
2023/09/23 01:23:43;;;;;;;3.25;0.80;;;11.20;99.90;;;10.27;100.00;97246.66;4982759;28;20144;-74
2023/09/23 01:26:14;;;;;;;3.38;0.60;;;11.00;99.90;;;10.33;100.00;97252.50;4963566;28;20050;-74
2023/09/23 01:28:42;;;;;;;4.28;0.95;;;11.00;99.90;;;10.24;100.00;97241.63;4983594;28;20710;-74
2023/09/23 01:31:10;;;;;;;3.08;0.95;;;10.90;99.90;;;10.24;100.00;97253.72;4984645;28;20561;-74
2023/09/23 01:33:38;;;;;;;2.03;0.90;;;10.80;99.90;;;10.08;100.00;97244.97;4983392;28;20503;-74
2023/09/23 01:36:06;;;;;;;3.20;0.90;;;10.80;99.90;;;10.09;100.00;97250.13;4984326;28;20054;-74
2023/09/23 01:38:33;;;;;;;3.60;1.10;;;10.80;99.90;;;9.96;100.00;97247.22;4969742;28;20072;-74
2023/09/23 01:41:00;;;;;;;3.65;0.90;;;10.80;99.90;;;9.97;100.00;97250.69;4980547;28;20113;-74
2023/09/23 01:43:29;;;;;;;1.88;0.90;;;10.80;99.90;;;10.01;100.00;97250.47;4982026;28;20130;-74
2023/09/23 01:46:02;;;;;;;1.95;0.80;;;10.80;99.90;;;10.06;100.00;97250.25;4982431;28;20047;-74
2023/09/23 01:48:30;;;;;;;2.90;1.08;;;10.70;99.90;;;9.77;100.00;97255.00;4969780;28;20519;-74
2023/09/23 01:51:00;;;;;;;2.22;1.02;;;10.60;99.90;;;9.73;100.00;97258.63;4982121;28;20438;-74
2023/09/23 01:53:28;;;;;;;3.22;1.30;;;10.60;99.90;;;9.76;100.00;97258.50;4986697;28;20054;-74
2023/09/23 01:55:55;;;;;;;4.03;1.02;;;10.50;99.90;;;9.60;100.00;97260.94;4983433;28;20101;-74
2023/09/23 01:58:23;;;;;;;1.77;0.90;;;10.40;99.90;;;9.49;100.00;97250.19;4985532;28;20052;-74
2023/09/23 02:00:52;;;;;;;2.58;1.00;;;10.40;99.90;;;9.49;100.00;97245.00;4983342;28;20208;-74
2023/09/23 02:03:20;;;;;;;2.05;1.10;;;10.30;99.90;;;9.46;100.00;97252.91;4983181;28;20082;-74
2023/09/23 02:05:47;;;;;;;3.67;1.45;;;10.30;99.90;;;9.39;100.00;97252.31;4981113;28;20050;-74
2023/09/23 02:08:15;;;;;;;3.42;0.98;;;10.20;99.90;;;9.35;100.00;97249.94;4983783;28;20120;-74
2023/09/23 02:10:45;;;;;;;4.50;1.20;;;10.20;99.90;;;9.39;100.00;97252.31;4996248;28;20054;-74
2023/09/23 02:13:12;;;;;;;7.63;2.20;;;10.20;99.90;;;9.27;100.00;97262.38;4983459;28;20055;-74
2023/09/23 02:15:39;;;;;;;4.70;1.55;;;10.10;99.90;;;9.32;100.00;97268.19;4984169;28;20537;-74
2023/09/23 02:18:06;;;;;;;6.97;1.30;;;10.00;99.90;;;9.22;100.00;97262.56;5000082;28;20058;-74
2023/09/23 02:20:34;;;;;;;3.20;1.10;;;10.10;99.90;;;9.17;100.00;97259.34;4985889;28;20951;-74
2023/09/23 02:23:03;;;;;;;3.20;1.33;;;10.00;99.90;;;9.17;100.00;97255.00;4981667;28;20050;-74
2023/09/23 02:25:30;;;;;;;3.95;1.40;;;10.00;99.90;;;9.16;100.00;97260.22;4983567;28;20073;-74
2023/09/23 02:27:58;;;;;;;5.07;1.20;;;9.90;99.90;;;9.19;100.00;97263.56;4984615;28;20046;-74
2023/09/23 02:30:25;;;;;;;2.88;1.20;;;9.90;99.90;;;9.18;100.00;97261.00;5000730;28;20104;-74
2023/09/23 02:32:53;;;;;;;3.17;1.58;;;9.90;99.90;;;9.04;100.00;97260.75;4980530;28;20056;-74
2023/09/23 02:35:20;;;;;;;5.13;1.48;;;9.80;99.90;;;9.06;100.00;97270.16;4981876;28;20422;-74
2023/09/23 02:37:48;;;;;;;3.35;1.30;;;9.90;99.90;;;9.06;100.00;97269.31;4980417;28;20137;-74
2023/09/23 02:40:17;;;;;;;5.93;1.40;;;9.90;99.90;;;8.98;100.00;97269.59;4982649;28;20070;-74
2023/09/23 02:43:04;;;;;;;4.47;1.55;;;9.80;99.90;;;8.96;100.00;97269.69;4981969;28;20053;-74
2023/09/23 02:45:31;;;;;;;5.80;1.50;;;9.80;99.90;;;8.99;100.00;97264.38;4986029;28;20050;-74
2023/09/23 02:47:59;;;;;;;2.55;1.23;;;9.80;99.90;;;9.06;100.00;97269.31;4983561;28;20043;-74
2023/09/23 02:50:26;;;;;;;4.78;1.48;;;9.80;99.90;;;9.00;100.00;97267.78;4985527;28;20082;-74
2023/09/23 02:52:54;;;;;;;4.28;1.88;;;9.80;99.90;;;8.95;100.00;97269.75;4988026;28;20130;-74
2023/09/23 02:55:21;;;;;;;5.03;1.83;;;9.80;99.90;;;9.00;100.00;97265.22;4985919;28;20582;-74
2023/09/23 02:57:50;;;;;;;4.15;1.80;;;9.80;99.90;;;9.02;100.00;97267.75;5001620;28;20419;-74
2023/09/23 03:00:21;;;;;;;4.30;1.67;;;9.80;99.90;;;8.98;100.00;97272.19;4986246;28;20058;-74
2023/09/23 03:03:01;;;;;;;3.75;1.90;;;9.70;99.90;;;9.01;100.00;97272.09;4987927;28;20047;-74
2023/09/23 03:05:29;;;;;;;8.63;1.73;;;9.70;99.90;;;8.98;100.00;97264.44;5001844;28;20938;-74
2023/09/23 03:07:59;;;;;;;3.85;1.83;;;9.70;99.90;;;8.89;100.00;97267.41;4987198;28;20054;-74
2023/09/23 03:10:33;;;;;;;4.25;1.70;;;9.70;99.90;;;8.96;100.00;97261.94;4984860;28;20156;-74
2023/09/23 03:13:04;;;;;;;6.20;2.47;;;9.60;99.90;;;8.82;100.00;97260.78;4985791;28;20074;-74
2023/09/23 03:18:54;;;;;;;2.60;1.40;;;9.60;99.90;;;8.73;100.00;97272.34;4986867;28;20510;-74
2023/09/23 03:21:21;;;;;;;9.57;2.05;;;9.50;99.90;;;8.66;100.00;97268.31;4988307;28;20137;-75
2023/09/23 03:23:48;;;;;;;2.85;1.35;;;9.50;99.90;;;8.68;100.00;97259.59;4987156;28;20065;-73
2023/09/23 03:26:18;;;;;;;2.58;1.40;;;9.50;99.90;;;8.66;100.00;97271.75;4985102;28;20046;-74
2023/09/23 03:28:46;;;;;;;4.65;1.48;;;9.40;99.90;;;8.71;100.00;97271.56;4984961;28;20065;-74
2023/09/23 03:31:14;;;;;;;5.88;1.60;;;9.40;99.90;;;8.66;100.00;97271.75;4983795;28;20148;-74
2023/09/23 03:33:42;;;;;;;6.50;1.48;;;9.40;99.90;;;8.65;100.00;97264.91;4986638;28;20050;-74
2023/09/23 03:36:16;;;;;;;3.90;1.80;;;9.40;99.90;;;8.55;100.00;97266.16;4988182;28;20647;-74
2023/09/23 03:38:43;;;;;;;6.40;1.67;;;9.40;99.90;;;8.55;100.00;97271.31;4983145;28;20428;-74
2023/09/23 03:41:11;;;;;;;7.97;1.70;;;9.40;99.90;;;8.53;100.00;97267.94;4981161;28;20051;-74
2023/09/23 03:43:40;;;;;;;3.15;1.52;;;9.40;99.90;;;8.47;100.00;97263.88;4996639;28;20499;-74
2023/09/23 03:46:16;;;;;;;6.60;1.40;;;9.40;99.90;;;8.50;100.00;97271.50;4986090;28;20050;-74
2023/09/23 03:48:43;;;;;;;2.72;1.58;;;9.30;99.90;;;8.49;100.00;97271.59;4985968;28;20042;-74
2023/09/23 03:51:14;;;;;;;3.65;2.20;;;9.30;99.90;;;8.43;100.00;97277.81;4986412;28;20058;-74
2023/09/23 03:53:44;;;;;;;4.00;1.83;;;9.30;99.90;;;8.41;100.00;97282.22;4984722;28;20132;-74
2023/09/23 03:56:11;;;;;;;4.00;1.92;;;9.30;99.90;;;8.38;100.00;97280.56;4988640;28;20065;-74
2023/09/23 03:58:39;;;;;;;4.18;2.00;;;9.30;99.90;;;8.35;100.00;97279.84;4984653;28;20092;-74
2023/09/23 04:01:13;;;;;;;4.88;2.08;;;9.30;99.90;;;8.29;100.00;97277.50;4983714;28;20960;-74
2023/09/23 04:03:41;;;;;;;4.55;1.33;;;9.30;99.90;;;8.34;100.00;97270.38;4985858;28;20053;-74
2023/09/23 04:06:09;;;;;;;3.78;1.63;;;9.20;99.90;;;8.35;100.00;97269.50;5000023;28;20574;-74
2023/09/23 04:08:36;;;;;;;4.72;1.30;;;9.20;99.90;;;8.31;100.00;97278.28;4985830;28;20100;-74
2023/09/23 04:11:05;;;;;;;4.80;1.65;;;9.20;99.90;;;8.24;100.00;97272.50;4986727;28;20047;-74
2023/09/23 04:13:32;;;;;;;6.97;2.05;;;9.20;99.90;;;8.27;100.00;97280.13;4998616;28;20062;-74
2023/09/23 04:16:00;;;;;;;3.45;1.27;;;9.10;99.90;;;8.33;100.00;97276.47;4985024;28;20065;-74
2023/09/23 04:18:29;;;;;;;2.65;1.42;;;9.10;99.90;;;8.33;100.00;97276.47;5000300;28;20434;-74
2023/09/23 04:20:57;;;;;;;3.83;1.90;;;9.10;99.90;;;8.21;100.00;97274.34;5000421;28;20050;-74
2023/09/23 04:23:24;;;;;;;3.42;1.70;;;9.10;99.90;;;8.14;100.00;97276.31;4985126;28;20074;-74
2023/09/23 04:25:52;;;;;;;4.13;1.65;;;9.00;99.90;;;8.31;100.00;97280.88;4985065;28;20497;-74
2023/09/23 04:28:19;;;;;;;5.20;1.42;;;9.00;99.90;;;8.28;100.00;97284.41;5000110;28;21848;-74
2023/09/23 04:30:46;;;;;;;6.03;2.00;;;9.00;99.90;;;8.14;100.00;97281.47;4970750;28;20046;-74
2023/09/23 04:33:13;;;;;;;9.18;1.92;;;8.90;99.90;;;8.12;100.00;97273.81;4986491;28;20594;-74
2023/09/23 04:35:41;;;;;;;2.58;1.50;;;9.00;99.90;;;8.17;100.00;97287.41;4967412;28;20050;-74
2023/09/23 04:38:08;;;;;;;4.88;1.58;;;9.00;99.90;;;8.10;100.00;97287.69;4985368;28;20109;-74
2023/09/23 04:40:35;;;;;;;5.05;2.33;;;9.00;99.90;;;8.01;100.00;97290.63;4985016;28;20166;-74
2023/09/23 04:43:03;;;;;;;10.77;2.10;;;9.00;99.90;;;8.02;100.00;97306.06;4986868;28;20061;-74
2023/09/23 04:45:30;;;;;;;3.72;1.65;;;9.00;99.90;;;8.11;100.00;97304.88;4984101;28;20096;-74
2023/09/23 04:48:00;;;;;;;5.40;1.55;;;9.00;99.90;;;8.17;100.00;97313.25;4982274;28;20054;-74
2023/09/23 04:50:28;;;;;;;3.53;1.92;;;9.00;99.90;;;8.21;100.00;97307.94;4983539;28;20055;-74
2023/09/23 04:52:55;;;;;;;5.40;2.35;;;8.90;99.90;;;8.16;100.00;97315.88;4987059;28;20097;-74
2023/09/23 04:55:22;;;;;;;5.47;2.20;;;9.00;99.90;;;8.11;100.00;97316.06;4986856;28;20058;-74
2023/09/23 04:57:50;;;;;;;2.30;1.30;;;9.00;99.90;;;8.21;100.00;97308.81;4981759;28;20050;-74
2023/09/23 05:00:18;;;;;;;7.05;1.77;;;9.10;99.90;;;8.35;100.00;97316.88;4983085;28;20133;-74
2023/09/23 05:02:50;;;;;;;5.80;2.00;;;9.10;99.90;;;8.36;100.00;97328.06;4985591;28;20134;-75
2023/09/23 05:05:18;;;;;;;2.38;1.38;;;9.20;99.90;;;8.40;100.00;97342.63;4985401;28;20054;-74
2023/09/23 05:07:46;;;;;;;4.47;1.80;;;9.20;99.90;;;8.33;100.00;97354.06;4984223;28;20094;-74
2023/09/23 05:10:13;;;;;;;3.25;1.85;;;9.30;99.90;;;8.34;100.00;97355.72;4981931;28;20610;-74
2023/09/23 05:12:41;;;;;;;3.28;1.63;;;9.20;99.90;;;8.20;100.00;97356.25;4982509;28;20137;-74
2023/09/23 05:15:14;;;;;;;7.60;2.15;;;9.20;99.90;;;8.15;100.00;97363.34;4983313;28;20117;-74
2023/09/23 05:17:43;;;;;;;6.97;1.90;;;9.20;99.90;;;8.12;100.00;97366.03;4990224;28;20073;-74
2023/09/23 05:20:25;;;;;;;2.40;1.30;;;9.10;99.90;;;8.08;100.00;97375.63;4983075;28;20066;-74
2023/09/23 05:22:53;;;;;;;5.47;1.60;;;9.10;99.90;;;8.11;100.00;97372.94;4972734;28;20065;-74
2023/09/23 05:25:24;;;;;;;2.72;1.40;;;9.10;99.90;;;8.08;100.00;97373.03;4985379;28;20162;-74
2023/09/23 05:27:54;;;;;;;3.08;1.23;;;9.10;99.90;;;8.16;100.00;97386.56;4977394;28;20124;-74
2023/09/23 05:30:23;;;;;;;3.55;1.52;;;9.10;99.90;;;8.25;100.00;97394.84;5001721;28;20058;-74
2023/09/23 05:32:50;;;;;;;2.67;1.25;;;9.00;99.90;;;8.24;100.00;97396.59;4971060;28;20078;-74
2023/09/23 05:35:18;;;;;;;4.03;1.25;;;9.00;99.90;;;8.31;100.00;97395.47;4983558;28;20054;-74
2023/09/23 05:37:47;;;;;;;6.63;1.27;;;9.10;99.90;;;8.38;100.00;97396.94;4980730;28;20515;-74
2023/09/23 05:40:27;;;;;;;4.47;1.55;;;9.10;99.90;;;8.49;100.00;97396.59;4985810;28;20093;-74
2023/09/23 05:42:55;;;;;;;4.65;1.85;;;9.20;99.90;;;8.44;100.00;97402.81;4982134;28;20102;-74
2023/09/23 05:45:24;;;;;;;6.18;1.50;;;9.20;99.90;;;8.50;100.00;97397.41;4982351;28;20531;-74
2023/09/23 05:47:53;;;;;;;3.13;1.33;;;9.20;99.90;;;8.38;100.00;97404.69;4981151;28;20050;-74
2023/09/23 05:50:21;;;;;;;4.22;1.00;;;9.20;99.90;;;8.46;100.00;97409.66;4987155;28;20050;-74
2023/09/23 05:52:49;;;;;;;5.20;1.10;;;9.20;99.90;;;8.40;100.00;97416.75;4969711;28;20050;-74
2023/09/23 05:55:16;;;;;;;7.53;1.40;;;9.20;99.90;;;8.36;100.00;97423.75;4984576;28;20533;-74
2023/09/23 05:57:43;;;;;;;5.03;1.42;;;9.30;99.90;;;8.40;100.00;97427.97;4977193;28;20054;-74
2023/09/23 06:00:15;;;;;;;1.95;1.00;;;9.30;99.90;;;8.46;100.00;97426.88;4984591;28;20058;-74
2023/09/23 06:02:45;;;;;;;4.28;1.40;;;9.30;99.90;;;8.46;100.00;97437.22;4982650;28;20141;-74
2023/09/23 06:05:13;;;;;;;6.32;1.20;;;9.40;99.90;;;8.47;100.00;97444.09;4983689;28;20058;-74
2023/09/23 06:07:41;;;;;;;4.10;1.10;;;9.30;99.90;;;8.50;100.00;97447.41;4981500;28;20050;-74
2023/09/23 06:10:10;;;;;;;3.80;1.13;;;9.30;99.90;;;8.51;100.00;97456.88;4976118;28;20086;-74
2023/09/23 06:12:39;;;;;;;5.30;1.20;;;9.30;99.90;;;8.52;100.00;97457.72;4966287;28;20683;-74
2023/09/23 06:15:08;;;;;;;3.00;1.15;;;9.40;99.90;;;8.64;100.00;97465.00;4983192;28;20515;-74
2023/09/23 06:17:37;;;;;;;6.45;1.13;;;9.30;99.90;;;8.72;100.00;97459.56;4985237;28;20054;-74
2023/09/23 06:20:05;;;;;;;2.85;1.10;;;9.30;99.90;;;8.83;100.00;97467.78;4983298;28;20561;-74
2023/09/23 06:22:36;;;;;;;15.63;1.75;;;9.30;99.90;;;8.77;100.00;97465.41;4983563;28;20101;-74
2023/09/23 06:25:03;;;;;;;4.75;1.13;;;9.30;99.90;;;8.75;100.00;97468.06;4981572;28;20259;-74
2023/09/23 06:27:33;;;;;;;5.00;1.58;;;9.40;99.90;;;8.64;100.00;97477.94;4982985;28;20398;-74
2023/09/23 06:30:00;;;;;;;5.05;1.00;;;9.40;99.90;;;8.71;100.00;97479.44;4981083;28;20610;-74
2023/09/23 06:32:28;;;;;;;3.60;1.10;;;9.40;99.90;;;8.72;100.00;97481.13;4976467;28;20124;-74
2023/09/23 06:34:56;;;;;;;6.65;1.30;;;9.40;99.90;;;8.73;100.00;97479.38;4998684;28;20435;-74
2023/09/23 06:37:23;;;;;;;2.63;0.88;;;9.50;99.90;;;8.76;100.00;97477.53;4982389;28;20065;-74
2023/09/23 06:39:50;;;;;;;4.35;1.20;;;9.40;99.90;;;8.79;100.00;97498.09;4980970;28;20712;-74
2023/09/23 06:42:17;;;;;;;6.60;1.40;;;9.40;99.90;;;8.81;100.00;97492.88;4984042;28;20065;-74
2023/09/23 06:44:45;;;;;;;7.13;1.65;;;9.50;99.90;;;8.85;100.00;97496.19;4980955;28;20829;-74
2023/09/23 06:47:13;;;;;;;3.75;1.35;;;9.50;99.90;;;8.94;100.00;97501.88;4981137;28;20392;-74
2023/09/23 06:49:40;;;;;;;3.13;1.10;;;9.60;99.90;;;8.97;100.00;97517.28;4984074;28;20093;-74
2023/09/23 06:52:08;;;;;;;3.00;0.90;;;9.60;99.90;;;9.13;100.00;97506.38;4998074;28;20046;-74
2023/09/23 06:54:35;;;;;;;3.15;0.90;;;9.70;99.90;;;9.23;100.00;97514.63;4982093;28;20047;-74
2023/09/23 06:57:03;;;;;;;4.25;1.23;;;9.90;99.90;;;9.41;100.00;97503.53;4980681;28;20065;-75
2023/09/23 06:59:30;;;;;;;2.03;0.93;;;10.00;99.90;;;9.51;100.00;97511.78;4984248;28;20057;-74
2023/09/23 07:01:57;;;;;;;4.55;0.85;;;10.00;99.90;;;9.48;100.00;97514.50;4982158;28;20125;-74
2023/09/23 07:04:24;;;;;;;7.75;1.10;;;10.10;99.90;;;9.57;100.00;97524.50;4968340;28;20046;-74
2023/09/23 07:06:51;;;;;;;4.90;1.05;;;10.20;99.90;;;9.63;100.00;97540.66;4981243;28;20503;-73
2023/09/23 07:09:19;;;;;;;3.53;0.93;;;10.30;99.90;;;9.93;100.00;97542.94;4983744;28;20039;-74
2023/09/23 07:11:46;;;;;;;3.35;0.80;;;10.40;99.90;;;10.00;100.00;97549.56;4986744;28;20075;-74
2023/09/23 07:14:13;;;;;;;3.13;0.75;;;10.50;99.90;;;10.17;100.00;97542.84;4981436;28;20297;-74
2023/09/23 07:16:41;;;;;;;4.38;1.00;;;10.70;99.90;;;10.38;100.00;97552.38;4978607;28;20086;-74
2023/09/23 07:19:08;;;;;;;3.05;0.90;;;10.90;99.90;;;10.78;100.00;97548.03;4979066;28;20054;-74
2023/09/23 07:21:35;;;;;;;2.45;1.02;;;11.10;99.90;;;10.78;100.00;97550.63;5000011;28;20136;-74
2023/09/23 07:24:03;;;;;;;3.95;0.80;;;11.20;99.90;;;10.81;100.00;97549.66;4981470;28;20060;-73
2023/09/23 07:26:35;;;;;;;4.97;0.90;;;11.30;99.90;;;10.85;100.00;97549.44;4980518;28;20069;-74
2023/09/23 07:29:02;;;;;;;2.88;0.82;;;11.40;99.90;;;10.92;100.00;97554.38;4981567;28;20135;-74
2023/09/23 07:31:29;;;;;;;3.38;0.75;;;11.40;99.90;;;11.11;100.00;97560.44;4982940;28;20511;-74
2023/09/23 07:33:56;;;;;;;3.67;0.60;;;11.60;99.90;;;11.09;100.00;97572.66;4980617;28;20050;-74
2023/09/23 07:36:24;;;;;;;3.95;0.70;;;11.50;99.90;;;11.43;100.00;97560.75;4984119;28;20519;-73
2023/09/23 07:38:51;;;;;;;5.47;0.70;;;11.60;99.90;;;11.90;100.00;97555.06;4987686;28;20054;-74
2023/09/23 07:41:18;;;;;;;2.03;0.70;;;11.70;99.90;;;11.80;100.00;97546.84;4986002;28;20061;-74
2023/09/23 07:43:46;;;;;;;4.70;1.13;;;11.90;99.90;;;12.65;100.00;97560.91;4985439;28;20095;-74
2023/09/23 07:46:14;;;;;;;6.10;0.80;;;12.10;99.90;;;12.90;100.00;97566.53;4986275;28;20153;-74
2023/09/23 07:48:41;;;;;;;3.00;0.70;;;12.20;99.90;;;13.31;100.00;97562.69;4987370;28;20161;-74
2023/09/23 07:51:09;;;;;;;4.10;0.85;;;12.80;99.90;;;12.93;100.00;97565.53;4982443;28;20725;-74
2023/09/23 07:53:37;;;;;;;4.07;0.80;;;13.40;99.90;;;12.91;100.00;97570.00;4987049;28;20050;-74
2023/09/23 07:56:04;;;;;;;2.78;0.73;;;13.90;99.90;;;13.55;100.00;97569.19;4984202;28;20198;-74
2023/09/23 07:58:31;;;;;;;4.15;0.95;;;14.90;99.90;;;14.17;100.00;97566.59;4998250;28;20097;-74
2023/09/23 08:00:58;;;;;;;2.63;0.70;;;15.70;99.90;;;14.73;100.00;97573.84;4986681;28;20058;-74
2023/09/23 08:03:26;;;;;;;4.40;0.70;;;16.30;99.90;;;14.62;100.00;97572.72;4985579;28;20149;-74
2023/09/23 08:05:54;;;;;;;2.67;0.60;;;16.70;99.90;;;14.76;100.00;97579.75;4984336;28;20046;-74
2023/09/23 08:08:21;;;;;;;2.03;0.80;;;16.60;99.90;;;15.55;100.00;97588.88;5000898;28;20533;-75
2023/09/23 08:10:51;;;;;;;2.00;0.50;;;16.70;99.90;;;15.70;100.00;97592.31;4984935;28;20465;-74
2023/09/23 08:13:19;;;;;;;3.63;0.68;;;16.90;99.90;;;16.11;100.00;97591.47;4983613;28;20522;-75
2023/09/23 08:15:49;;;;;;;3.17;0.60;;;17.30;99.90;;;16.08;100.00;97603.00;4982726;28;20057;-75
2023/09/23 08:18:16;;;;;;;6.32;0.90;;;17.60;99.90;;;16.56;100.00;97602.50;4983552;28;20046;-75
2023/09/23 08:20:43;;;;;;;3.25;0.75;;;17.80;99.90;;;15.95;100.00;97615.19;4982929;28;20053;-74
2023/09/23 08:23:10;;;;;;;2.45;0.60;;;17.20;99.90;;;16.18;100.00;97625.97;4981653;28;20133;-74
2023/09/23 08:25:38;;;;;;;3.15;0.52;;;16.50;99.90;;;15.53;100.00;97629.13;4980883;28;20057;-75
2023/09/23 08:28:05;;;;;;;3.65;0.77;;;16.50;99.90;;;15.42;100.00;97633.28;4996109;28;20078;-74
2023/09/23 08:30:32;;;;;;;4.20;0.70;;;16.80;99.90;;;15.19;100.00;97624.22;4968654;28;20054;-74
2023/09/23 08:32:59;;;;;;;3.70;0.70;;;17.50;99.90;;;15.06;100.00;97633.72;4983039;28;20054;-75
2023/09/23 08:35:28;;;;;;;3.10;0.70;;;17.80;99.90;;;15.81;100.00;97638.78;4968752;28;20078;-74
2023/09/23 08:38:00;;;;;;;2.35;0.63;;;17.80;99.90;;;15.95;100.00;97646.59;4982838;28;20139;-74
2023/09/23 08:40:35;;;;;;;3.47;0.70;;;18.20;99.90;;;16.07;100.00;97640.56;4981032;28;20042;-75
2023/09/23 08:43:06;;;;;;;7.20;0.63;;;18.50;99.90;;;16.40;100.00;97638.47;4985152;28;20046;-75
2023/09/23 08:45:45;;;;;;;3.28;0.55;;;18.50;99.90;;;16.90;100.00;97637.81;4979562;28;20214;-74
2023/09/23 08:48:13;;;;;;;2.38;0.60;;;18.70;99.90;;;16.48;100.00;97628.34;4980996;28;20057;-75
2023/09/23 08:50:46;;;;;;;4.53;0.82;;;18.70;99.90;;;17.70;100.00;97641.97;4983187;28;20055;-75
2023/09/23 08:53:19;;;;;;;4.90;0.70;;;18.70;99.90;;;16.29;100.00;97637.41;4982925;28;20058;-75
2023/09/23 08:55:48;;;;;;;5.47;0.80;;;18.90;99.90;;;17.56;100.00;97653.41;4982060;28;20054;-74
2023/09/23 08:58:15;;;;;;;3.05;0.70;;;18.10;99.90;;;17.58;100.00;97651.53;4980753;28;20835;-74
2023/09/23 09:00:46;;;;;;;4.18;0.70;;;17.80;99.90;;;17.74;100.00;97659.16;4982463;28;20672;-74
2023/09/23 09:03:13;;;;;;;5.55;0.60;;;18.00;99.90;;;17.48;100.00;97656.59;4983177;28;20423;-74
2023/09/23 09:05:42;;;;;;;5.88;0.70;;;17.90;99.90;;;16.81;100.00;97656.78;4980900;28;20058;-75
2023/09/23 09:08:10;;;;;;;5.05;0.80;;;18.50;99.90;;;16.56;100.00;97661.91;4984549;28;20070;-75
2023/09/23 09:10:37;;;;;;;3.00;0.80;;;18.20;99.90;;;16.70;100.00;97654.00;4982999;28;20052;-75
2023/09/23 09:13:06;;;;;;;3.50;0.80;;;18.10;99.90;;;16.06;100.00;97657.22;4982726;28;20050;-74
2023/09/23 09:15:35;;;;;;;4.45;0.60;;;17.80;99.90;;;16.85;100.00;97660.00;4978930;28;20538;-74
2023/09/23 09:18:03;;;;;;;3.58;0.85;;;18.00;99.90;;;16.13;100.00;97659.47;4982044;28;20104;-74
2023/09/23 09:20:31;;;;;;;2.08;0.50;;;17.80;99.90;;;16.33;100.00;97656.41;4982018;28;20061;-75
2023/09/23 09:22:58;;;;;;;5.53;0.80;;;17.90;99.90;;;16.25;100.00;97662.13;4978665;28;20057;-74
2023/09/23 09:25:25;;;;;;;4.80;0.70;;;17.70;99.90;;;17.16;100.00;97655.34;4985843;28;20065;-74
2023/09/23 09:27:53;;;;;;;7.28;0.85;;;18.20;99.90;;;17.51;100.00;97648.47;4976453;28;20153;-74
2023/09/23 09:30:20;;;;;;;5.28;0.80;;;18.30;99.90;;;17.43;100.00;97658.69;4982497;28;20164;-75
2023/09/23 09:32:47;;;;;;;4.35;0.90;;;18.80;99.90;;;16.28;100.00;97661.06;4965769;28;20507;-76
2023/09/23 09:35:18;;;;;;;8.18;1.15;;;18.20;99.90;;;16.84;100.00;97672.28;4981417;28;20050;-74
2023/09/23 09:37:48;;;;;;;3.42;0.60;;;18.00;99.90;;;16.78;100.00;97674.44;4982840;28;20525;-75
2023/09/23 09:40:28;;;;;;;5.47;0.80;;;17.90;99.90;;;15.76;100.00;97675.72;4979203;28;20074;-75
2023/09/23 09:42:59;;;;;;;4.43;0.80;;;17.10;99.90;;;16.60;100.00;97681.72;4983129;28;20065;-76
2023/09/23 09:45:34;;;;;;;4.43;0.77;;;16.70;99.90;;;16.23;100.00;97673.63;4982738;28;20054;-75
2023/09/23 09:48:04;;;;;;;2.60;0.75;;;16.80;99.90;;;15.95;100.00;97678.00;4977595;28;20061;-75
2023/09/23 09:50:34;;;;;;;4.50;0.93;;;16.60;99.90;;;15.77;100.00;97690.47;4982297;28;20145;-74
2023/09/23 09:53:03;;;;;;;5.90;0.90;;;16.50;99.90;;;15.75;100.00;97687.09;4981022;28;20078;-75
2023/09/23 09:55:34;;;;;;;4.50;0.90;;;16.30;99.90;;;15.45;100.00;97682.78;4982725;28;20046;-74
2023/09/23 09:58:02;;;;;;;4.45;0.50;;;16.00;99.90;;;15.18;100.00;97692.28;4979541;28;20056;-74
2023/09/23 10:00:33;;;;;;;5.63;0.80;;;15.60;99.90;;;14.66;100.00;97692.69;4982375;28;20054;-75
2023/09/23 10:03:08;;;;;;;4.93;0.83;;;15.10;99.90;;;14.44;100.00;97709.56;4979456;28;20137;-74
2023/09/23 10:05:46;;;;;;;2.53;0.50;;;14.80;99.90;;;14.54;100.00;97702.06;4981606;28;20105;-74
2023/09/23 10:08:19;;;;;;;2.28;0.45;;;14.60;99.90;;;14.19;100.00;97704.88;4982597;28;20122;-75
2023/09/23 10:10:57;;;;;;;2.30;0.73;;;14.70;99.90;;;14.33;100.00;97710.16;4984130;28;20107;-74
2023/09/23 10:13:31;;;;;;;1.65;0.57;;;14.70;99.90;;;14.36;100.00;97707.38;4981223;28;20137;-75
2023/09/23 10:16:06;;;;;;;1.63;0.68;;;14.50;99.90;;;14.47;100.00;97708.56;4984034;28;20422;-74
2023/09/23 10:18:37;;;;;;;5.25;1.25;;;14.50;99.90;;;14.16;100.00;97708.50;4965436;28;20077;-74
2023/09/23 10:21:06;;;;;;;4.53;0.70;;;14.40;99.90;;;14.17;100.00;97698.88;4966373;28;20055;-74
2023/09/23 10:23:35;;;;;;;3.90;0.90;;;14.50;99.90;;;14.46;100.00;97699.00;4993321;28;20723;-75
2023/09/23 10:26:23;;;;;;;4.00;0.60;;;14.70;99.90;;;14.85;100.00;97701.19;4964663;28;20500;-75
2023/09/23 10:29:03;;;;;;;3.88;0.65;;;15.10;99.90;;;15.37;100.00;97694.63;4980471;28;20050;-74